sensor_id;sensor_type;location;lat;lon;timestamp;pressure;altitude;pressure_sealevel;temperature
78905;BMP280;68291;49.602;8.722;2023-03-12T00:02:14;99317.56;;;1.94
78905;BMP280;68291;49.602;8.722;2023-03-12T00:05:05;99315.09;;;1.91
78905;BMP280;68291;49.602;8.722;2023-03-12T00:07:39;99310.88;;;1.89
78905;BMP280;68291;49.602;8.722;2023-03-12T00:10:31;99317.72;;;1.84
78905;BMP280;68291;49.602;8.722;2023-03-12T00:13:23;99310.19;;;1.78
78905;BMP280;68291;49.602;8.722;2023-03-12T00:16:11;99317.09;;;1.69
78905;BMP280;68291;49.602;8.722;2023-03-12T00:19:06;99320.53;;;1.65
78905;BMP280;68291;49.602;8.722;2023-03-12T00:21:55;99314.69;;;1.58
78905;BMP280;68291;49.602;8.722;2023-03-12T00:24:44;99312.16;;;1.57
78905;BMP280;68291;49.602;8.722;2023-03-12T00:27:37;99310.53;;;1.54
78905;BMP280;68291;49.602;8.722;2023-03-12T00:30:30;99311.41;;;1.50
78905;BMP280;68291;49.602;8.722;2023-03-12T00:33:03;99299.72;;;1.40
78905;BMP280;68291;49.602;8.722;2023-03-12T00:35:55;99313.94;;;1.52
78905;BMP280;68291;49.602;8.722;2023-03-12T00:38:38;99321.50;;;1.56
78905;BMP280;68291;49.602;8.722;2023-03-12T00:41:16;99317.25;;;1.58
78905;BMP280;68291;49.602;8.722;2023-03-12T00:43:52;99306.13;;;1.65
78905;BMP280;68291;49.602;8.722;2023-03-12T00:46:38;99300.16;;;1.70
78905;BMP280;68291;49.602;8.722;2023-03-12T00:49:21;99314.50;;;1.74
78905;BMP280;68291;49.602;8.722;2023-03-12T00:52:00;99307.69;;;1.76
78905;BMP280;68291;49.602;8.722;2023-03-12T00:54:49;99311.06;;;1.78
78905;BMP280;68291;49.602;8.722;2023-03-12T00:57:30;99308.59;;;1.74
78905;BMP280;68291;49.602;8.722;2023-03-12T01:00:17;99314.44;;;1.76
78905;BMP280;68291;49.602;8.722;2023-03-12T01:03:04;99310.28;;;1.72
78905;BMP280;68291;49.602;8.722;2023-03-12T01:05:44;99307.91;;;1.60
78905;BMP280;68291;49.602;8.722;2023-03-12T01:08:38;99312.28;;;1.51
78905;BMP280;68291;49.602;8.722;2023-03-12T01:11:24;99314.75;;;1.54
78905;BMP280;68291;49.602;8.722;2023-03-12T01:14:19;99313.94;;;1.52
78905;BMP280;68291;49.602;8.722;2023-03-12T01:17:16;99308.03;;;1.50
78905;BMP280;68291;49.602;8.722;2023-03-12T01:19:48;99307.22;;;1.48
78905;BMP280;68291;49.602;8.722;2023-03-12T01:22:32;99300.41;;;1.53
78905;BMP280;68291;49.602;8.722;2023-03-12T01:25:23;99302.91;;;1.56
78905;BMP280;68291;49.602;8.722;2023-03-12T01:27:58;99303.72;;;1.58
78905;BMP280;68291;49.602;8.722;2023-03-12T01:30:43;99307.84;;;1.63
78905;BMP280;68291;49.602;8.722;2023-03-12T01:33:16;99298.59;;;1.61
78905;BMP280;68291;49.602;8.722;2023-03-12T01:35:56;99311.22;;;1.67
78905;BMP280;68291;49.602;8.722;2023-03-12T01:38:41;99306.06;;;1.71
78905;BMP280;68291;49.602;8.722;2023-03-12T01:41:26;99312.72;;;1.79
78905;BMP280;68291;49.602;8.722;2023-03-12T01:43:58;99306.72;;;1.85
78905;BMP280;68291;49.602;8.722;2023-03-12T01:46:43;99300.69;;;1.92
78905;BMP280;68291;49.602;8.722;2023-03-12T01:49:22;99306.47;;;2.01
78905;BMP280;68291;49.602;8.722;2023-03-12T01:52:19;99304.75;;;2.03
78905;BMP280;68291;49.602;8.722;2023-03-12T01:55:16;99304.66;;;2.09
78905;BMP280;68291;49.602;8.722;2023-03-12T01:58:47;99295.19;;;2.17
78905;BMP280;68291;49.602;8.722;2023-03-12T02:01:44;99288.38;;;2.22
78905;BMP280;68291;49.602;8.722;2023-03-12T02:04:26;99292.63;;;2.20
78905;BMP280;68291;49.602;8.722;2023-03-12T02:07:16;99288.31;;;2.23
78905;BMP280;68291;49.602;8.722;2023-03-12T02:09:56;99283.22;;;2.26
78905;BMP280;68291;49.602;8.722;2023-03-12T02:12:40;99282.41;;;2.24
78905;BMP280;68291;49.602;8.722;2023-03-12T02:15:17;99270.69;;;2.16
78905;BMP280;68291;49.602;8.722;2023-03-12T02:18:05;99283.31;;;2.20
78905;BMP280;68291;49.602;8.722;2023-03-12T02:21:02;99274.84;;;2.20
78905;BMP280;68291;49.602;8.722;2023-03-12T02:23:54;99273.22;;;2.17
78905;BMP280;68291;49.602;8.722;2023-03-12T02:26:52;99275.75;;;2.16
78905;BMP280;68291;49.602;8.722;2023-03-12T02:29:25;99277.41;;;2.17
78905;BMP280;68291;49.602;8.722;2023-03-12T02:32:22;99280.78;;;2.19
78905;BMP280;68291;49.602;8.722;2023-03-12T02:35:01;99272.31;;;2.18
78905;BMP280;68291;49.602;8.722;2023-03-12T02:37:51;99262.06;;;2.26
78905;BMP280;68291;49.602;8.722;2023-03-12T02:40:45;99269.63;;;2.27
78905;BMP280;68291;49.602;8.722;2023-03-12T02:43:30;99257.81;;;2.25
78905;BMP280;68291;49.602;8.722;2023-03-12T02:46:07;99261.03;;;2.36
78905;BMP280;68291;49.602;8.722;2023-03-12T02:49:00;99262.56;;;2.44
78905;BMP280;68291;49.602;8.722;2023-03-12T02:51:57;99252.38;;;2.45
78905;BMP280;68291;49.602;8.722;2023-03-12T02:54:47;99253.94;;;2.52
78905;BMP280;68291;49.602;8.722;2023-03-12T02:57:38;99247.06;;;2.59
78905;BMP280;68291;49.602;8.722;2023-03-12T03:00:21;99255.50;;;2.59
78905;BMP280;68291;49.602;8.722;2023-03-12T03:03:16;99256.31;;;2.61
78905;BMP280;68291;49.602;8.722;2023-03-12T03:06:02;99262.97;;;2.68
78905;BMP280;68291;49.602;8.722;2023-03-12T03:08:48;99263.78;;;2.70
78905;BMP280;68291;49.602;8.722;2023-03-12T03:11:24;99261.28;;;2.69
78905;BMP280;68291;49.602;8.722;2023-03-12T03:13:59;99259.56;;;2.69
78905;BMP280;68291;49.602;8.722;2023-03-12T03:17:04;99263.84;;;2.67
78905;BMP280;68291;49.602;8.722;2023-03-12T03:19:39;99256.22;;;2.67
78905;BMP280;68291;49.602;8.722;2023-03-12T03:22:22;99253.66;;;2.69
78905;BMP280;68291;49.602;8.722;2023-03-12T03:25:02;99234.81;;;2.78
78905;BMP280;68291;49.602;8.722;2023-03-12T03:27:40;99238.88;;;2.87
78905;BMP280;68291;49.602;8.722;2023-03-12T03:30:12;99232.78;;;2.95
78905;BMP280;68291;49.602;8.722;2023-03-12T03:33:11;99232.81;;;2.94
78905;BMP280;68291;49.602;8.722;2023-03-12T03:36:01;99237.06;;;2.93
78905;BMP280;68291;49.602;8.722;2023-03-12T03:38:45;99239.50;;;2.98
78905;BMP280;68291;49.602;8.722;2023-03-12T03:41:33;99238.66;;;2.99
78905;BMP280;68291;49.602;8.722;2023-03-12T03:44:12;99231.69;;;3.06
78905;BMP280;68291;49.602;8.722;2023-03-12T03:46:52;99229.91;;;3.11
78905;BMP280;68291;49.602;8.722;2023-03-12T03:49:43;99215.50;;;3.10
78905;BMP280;68291;49.602;8.722;2023-03-12T03:52:30;99224.66;;;3.17
78905;BMP280;68291;49.602;8.722;2023-03-12T03:55:21;99219.59;;;3.17
78905;BMP280;68291;49.602;8.722;2023-03-12T03:58:08;99217.91;;;3.18
78905;BMP280;68291;49.602;8.722;2023-03-12T04:00:39;99226.47;;;3.14
78905;BMP280;68291;49.602;8.722;2023-03-12T04:03:23;99231.50;;;3.15
78905;BMP280;68291;49.602;8.722;2023-03-12T04:06:22;99231.50;;;3.15
78905;BMP280;68291;49.602;8.722;2023-03-12T04:09:19;99234.91;;;3.16
78905;BMP280;68291;49.602;8.722;2023-03-12T04:12:01;99215.53;;;3.09
78905;BMP280;68291;49.602;8.722;2023-03-12T04:14:40;99232.06;;;3.29
78905;BMP280;68291;49.602;8.722;2023-03-12T04:17:23;99226.84;;;3.35
78905;BMP280;68291;49.602;8.722;2023-03-12T04:19:57;99227.72;;;3.34
78905;BMP280;68291;49.602;8.722;2023-03-12T04:22:43;99229.41;;;3.35
78905;BMP280;68291;49.602;8.722;2023-03-12T04:25:29;99227.63;;;3.37
78905;BMP280;68291;49.602;8.722;2023-03-12T04:28:01;99225.84;;;3.42
78905;BMP280;68291;49.602;8.722;2023-03-12T04:30:55;99233.38;;;3.46
78905;BMP280;68291;49.602;8.722;2023-03-12T04:33:51;99233.19;;;3.54
78905;BMP280;68291;49.602;8.722;2023-03-12T04:36:41;99228.84;;;3.59
78905;BMP280;68291;49.602;8.722;2023-03-12T04:39:43;99220.34;;;3.60
78905;BMP280;68291;49.602;8.722;2023-03-12T04:42:19;99226.22;;;3.62
78905;BMP280;68291;49.602;8.722;2023-03-12T04:45:03;99220.22;;;3.64
78905;BMP280;68291;49.602;8.722;2023-03-12T04:47:45;99215.88;;;3.69
78905;BMP280;68291;49.602;8.722;2023-03-12T04:50:39;99226.97;;;3.67
78905;BMP280;68291;49.602;8.722;2023-03-12T04:53:34;99215.16;;;3.63
78905;BMP280;68291;49.602;8.722;2023-03-12T04:56:49;99215.22;;;3.61
78905;BMP280;68291;49.602;8.722;2023-03-12T04:59:27;99215.13;;;3.66
78905;BMP280;68291;49.602;8.722;2023-03-12T05:02:12;99219.28;;;3.68
78905;BMP280;68291;49.602;8.722;2023-03-12T05:04:50;99208.31;;;3.66
78905;BMP280;68291;49.602;8.722;2023-03-12T05:07:26;99192.94;;;3.71
78905;BMP280;68291;49.602;8.722;2023-03-12T05:10:12;99198.78;;;3.74
78905;BMP280;68291;49.602;8.722;2023-03-12T05:12:51;99197.75;;;3.82
78905;BMP280;68291;49.602;8.722;2023-03-12T05:15:26;99196.00;;;3.84
78905;BMP280;68291;49.602;8.722;2023-03-12T05:17:57;99196.94;;;3.80
78905;BMP280;68291;49.602;8.722;2023-03-12T05:21:00;99196.13;;;3.78
78905;BMP280;68291;49.602;8.722;2023-03-12T05:23:47;99200.41;;;3.78
78905;BMP280;68291;49.602;8.722;2023-03-12T05:26:20;99198.56;;;3.83
78905;BMP280;68291;49.602;8.722;2023-03-12T05:29:25;99195.91;;;3.87
78905;BMP280;68291;49.602;8.722;2023-03-12T05:32:30;99196.59;;;3.94
78905;BMP280;68291;49.602;8.722;2023-03-12T05:35:11;99194.78;;;3.99
78905;BMP280;68291;49.602;8.722;2023-03-12T05:37:44;99192.06;;;4.06
78905;BMP280;68291;49.602;8.722;2023-03-12T05:40:30;99193.47;;;4.16
78905;BMP280;68291;49.602;8.722;2023-03-12T05:43:04;99191.63;;;4.22
78905;BMP280;68291;49.602;8.722;2023-03-12T05:46:19;99195.88;;;4.22
78905;BMP280;68291;49.602;8.722;2023-03-12T05:49:11;99198.34;;;4.25
78905;BMP280;68291;49.602;8.722;2023-03-12T05:51:42;99200.78;;;4.29
78905;BMP280;68291;49.602;8.722;2023-03-12T05:54:25;99208.28;;;4.34
78905;BMP280;68291;49.602;8.722;2023-03-12T05:57:11;99203.13;;;4.37
78905;BMP280;68291;49.602;8.722;2023-03-12T05:59:50;99201.38;;;4.39
78905;BMP280;68291;49.602;8.722;2023-03-12T06:02:42;99197.91;;;4.41
78905;BMP280;68291;49.602;8.722;2023-03-12T06:05:27;99192.00;;;4.41
78905;BMP280;68291;49.602;8.722;2023-03-12T06:08:31;99195.41;;;4.40
78905;BMP280;68291;49.602;8.722;2023-03-12T06:11:28;99200.44;;;4.43
78905;BMP280;68291;49.602;8.722;2023-03-12T06:14:17;99208.00;;;4.45
78905;BMP280;68291;49.602;8.722;2023-03-12T06:17:12;99203.88;;;4.40
78905;BMP280;68291;49.602;8.722;2023-03-12T06:20:24;99202.34;;;4.35
78905;BMP280;68291;49.602;8.722;2023-03-12T06:23:04;99203.19;;;4.34
78905;BMP280;68291;49.602;8.722;2023-03-12T06:25:51;99217.53;;;4.38
78905;BMP280;68291;49.602;8.722;2023-03-12T06:28:30;99209.97;;;4.35
78905;BMP280;68291;49.602;8.722;2023-03-12T06:31:12;99201.78;;;4.24
78905;BMP280;68291;49.602;8.722;2023-03-12T06:33:52;99203.75;;;4.13
78905;BMP280;68291;49.602;8.722;2023-03-12T06:36:43;99199.69;;;4.06
78905;BMP280;68291;49.602;8.722;2023-03-12T06:39:17;99203.06;;;4.07
78905;BMP280;68291;49.602;8.722;2023-03-12T06:42:07;99196.19;;;4.10
78905;BMP280;68291;49.602;8.722;2023-03-12T06:44:46;99202.94;;;4.12
78905;BMP280;68291;49.602;8.722;2023-03-12T06:47:35;99201.94;;;4.18
78905;BMP280;68291;49.602;8.722;2023-03-12T06:50:26;99203.44;;;4.25
78905;BMP280;68291;49.602;8.722;2023-03-12T06:53:54;99185.22;;;4.40
78905;BMP280;68291;49.602;8.722;2023-03-12T06:56:49;99187.34;;;4.54
78905;BMP280;68291;49.602;8.722;2023-03-12T06:59:44;99184.69;;;4.59
78905;BMP280;68291;49.602;8.722;2023-03-12T07:02:35;99173.63;;;4.60
78905;BMP280;68291;49.602;8.722;2023-03-12T07:05:09;99178.41;;;4.70
78905;BMP280;68291;49.602;8.722;2023-03-12T07:07:53;99170.66;;;4.75
78905;BMP280;68291;49.602;8.722;2023-03-12T07:10:29;99164.28;;;4.89
78905;BMP280;68291;49.602;8.722;2023-03-12T07:13:00;99177.69;;;4.95
78905;BMP280;68291;49.602;8.722;2023-03-12T07:15:33;99175.06;;;4.98
78905;BMP280;68291;49.602;8.722;2023-03-12T07:18:18;99173.28;;;5.00
78905;BMP280;68291;49.602;8.722;2023-03-12T07:21:01;99177.47;;;5.03
78905;BMP280;68291;49.602;8.722;2023-03-12T07:23:44;99178.38;;;5.00
78905;BMP280;68291;49.602;8.722;2023-03-12T07:26:34;99164.94;;;4.95
78905;BMP280;68291;49.602;8.722;2023-03-12T07:29:18;99173.28;;;5.00
78905;BMP280;68291;49.602;8.722;2023-03-12T07:31:57;99179.84;;;5.09
78905;BMP280;68291;49.602;8.722;2023-03-12T07:34:48;99174.53;;;5.16
78905;BMP280;68291;49.602;8.722;2023-03-12T07:37:45;99181.78;;;5.29
78905;BMP280;68291;49.602;8.722;2023-03-12T07:40:26;99174.72;;;5.37
78905;BMP280;68291;49.602;8.722;2023-03-12T07:43:27;99173.63;;;5.45
78905;BMP280;68291;49.602;8.722;2023-03-12T07:46:19;99182.91;;;5.48
78905;BMP280;68291;49.602;8.722;2023-03-12T07:49:05;99179.44;;;5.49
78905;BMP280;68291;49.602;8.722;2023-03-12T07:51:39;99170.81;;;5.53
78905;BMP280;68291;49.602;8.722;2023-03-12T07:54:20;99158.69;;;5.59
78905;BMP280;68291;49.602;8.722;2023-03-12T07:57:22;99162.72;;;5.66
78905;BMP280;68291;49.602;8.722;2023-03-12T08:00:15;99170.22;;;5.71
78905;BMP280;68291;49.602;8.722;2023-03-12T08:03:08;99166.75;;;5.75
78905;BMP280;68291;49.602;8.722;2023-03-12T08:05:58;99167.50;;;5.78
78905;BMP280;68291;49.602;8.722;2023-03-12T08:08:44;99175.84;;;5.83
78905;BMP280;68291;49.602;8.722;2023-03-12T08:11:19;99171.38;;;5.89
78905;BMP280;68291;49.602;8.722;2023-03-12T08:14:01;99176.44;;;5.91
78905;BMP280;68291;49.602;8.722;2023-03-12T08:16:35;99178.84;;;5.95
78905;BMP280;68291;49.602;8.722;2023-03-12T08:19:20;99172.75;;;5.99
78905;BMP280;68291;49.602;8.722;2023-03-12T08:21:52;99179.31;;;6.06
78905;BMP280;68291;49.602;8.722;2023-03-12T08:24:24;99181.75;;;6.09
78905;BMP280;68291;49.602;8.722;2023-03-12T08:26:54;99179.00;;;6.15
78905;BMP280;68291;49.602;8.722;2023-03-12T08:29:26;99179.66;;;6.21
78905;BMP280;68291;49.602;8.722;2023-03-12T08:32:08;99187.34;;;6.20
78905;BMP280;68291;49.602;8.722;2023-03-12T08:34:39;99186.53;;;6.19
78905;BMP280;68291;49.602;8.722;2023-03-12T08:37:18;99179.81;;;6.17
78905;BMP280;68291;49.602;8.722;2023-03-12T08:40:15;99180.66;;;6.16
78905;BMP280;68291;49.602;8.722;2023-03-12T08:42:57;99161.28;;;6.11
78905;BMP280;68291;49.602;8.722;2023-03-12T08:45:43;99175.22;;;6.26
78905;BMP280;68291;49.602;8.722;2023-03-12T08:48:33;99176.94;;;6.26
78905;BMP280;68291;49.602;8.722;2023-03-12T08:51:11;99167.66;;;6.23
78905;BMP280;68291;49.602;8.722;2023-03-12T08:53:59;99172.59;;;6.28
78905;BMP280;68291;49.602;8.722;2023-03-12T08:56:41;99156.16;;;6.35
78905;BMP280;68291;49.602;8.722;2023-03-12T08:59:26;99166.06;;;6.44
78905;BMP280;68291;49.602;8.722;2023-03-12T09:01:55;99157.31;;;6.50
78905;BMP280;68291;49.602;8.722;2023-03-12T09:04:40;99167.25;;;6.59
78905;BMP280;68291;49.602;8.722;2023-03-12T09:07:16;99152.19;;;6.50
78905;BMP280;68291;49.602;8.722;2023-03-12T09:10:06;99148.88;;;6.48
78905;BMP280;68291;49.602;8.722;2023-03-12T09:12:50;99155.66;;;6.49
78905;BMP280;68291;49.602;8.722;2023-03-12T09:15:30;99155.03;;;6.43
78905;BMP280;68291;49.602;8.722;2023-03-12T09:18:08;99157.41;;;6.47
78905;BMP280;68291;49.602;8.722;2023-03-12T09:21:10;99165.72;;;6.54
78905;BMP280;68291;49.602;8.722;2023-03-12T09:23:44;99158.81;;;6.56
78905;BMP280;68291;49.602;8.722;2023-03-12T09:26:29;99156.88;;;6.62
78905;BMP280;68291;49.602;8.722;2023-03-12T09:28:59;99166.78;;;6.71
78905;BMP280;68291;49.602;8.722;2023-03-12T09:31:55;99161.25;;;6.83
78905;BMP280;68291;49.602;8.722;2023-03-12T09:34:28;99157.41;;;6.94
78905;BMP280;68291;49.602;8.722;2023-03-12T09:37:12;99158.88;;;7.00
78905;BMP280;68291;49.602;8.722;2023-03-12T09:39:45;99169.72;;;7.06
78905;BMP280;68291;49.602;8.722;2023-03-12T09:42:26;99160.88;;;7.15
78905;BMP280;68291;49.602;8.722;2023-03-12T09:45:07;99163.44;;;7.15
78905;BMP280;68291;49.602;8.722;2023-03-12T09:47:48;99172.34;;;7.27
78905;BMP280;68291;49.602;8.722;2023-03-12T09:50:41;99167.91;;;7.32
78905;BMP280;68291;49.602;8.722;2023-03-12T09:53:32;99174.66;;;7.33
78905;BMP280;68291;49.602;8.722;2023-03-12T09:56:15;99182.31;;;7.35
78905;BMP280;68291;49.602;8.722;2023-03-12T09:58:48;99184.78;;;7.36
78905;BMP280;68291;49.602;8.722;2023-03-12T10:01:37;99184.56;;;7.42
78905;BMP280;68291;49.602;8.722;2023-03-12T10:04:38;99162.06;;;7.50
78905;BMP280;68291;49.602;8.722;2023-03-12T10:07:42;99172.81;;;7.58
78905;BMP280;68291;49.602;8.722;2023-03-12T10:10:53;99180.59;;;7.56
78905;BMP280;68291;49.602;8.722;2023-03-12T10:13:53;99175.66;;;7.52
78905;BMP280;68291;49.602;8.722;2023-03-12T10:16:45;99177.06;;;7.59
78905;BMP280;68291;49.602;8.722;2023-03-12T10:19:54;99183.81;;;7.61
78905;BMP280;68291;49.602;8.722;2023-03-12T10:22:48;99187.31;;;7.59
78905;BMP280;68291;49.602;8.722;2023-03-12T10:25:58;99190.66;;;7.61
78905;BMP280;68291;49.602;8.722;2023-03-12T10:28:38;99204.03;;;7.69
78905;BMP280;68291;49.602;8.722;2023-03-12T10:31:26;99192.03;;;7.69
78905;BMP280;68291;49.602;8.722;2023-03-12T10:34:18;99201.97;;;7.77
78905;BMP280;68291;49.602;8.722;2023-03-12T10:36:58;99208.53;;;7.83
78905;BMP280;68291;49.602;8.722;2023-03-12T10:39:46;99197.94;;;7.92
78905;BMP280;68291;49.602;8.722;2023-03-12T10:42:33;99192.31;;;8.04
78905;BMP280;68291;49.602;8.722;2023-03-12T10:45:27;99192.09;;;8.10
78905;BMP280;68291;49.602;8.722;2023-03-12T10:48:10;99192.00;;;8.12
78905;BMP280;68291;49.602;8.722;2023-03-12T10:51:02;99185.16;;;8.12
78905;BMP280;68291;49.602;8.722;2023-03-12T10:53:47;99182.34;;;8.18
78905;BMP280;68291;49.602;8.722;2023-03-12T10:56:49;99182.75;;;8.29
78905;BMP280;68291;49.602;8.722;2023-03-12T10:59:46;99172.34;;;8.32
78905;BMP280;68291;49.602;8.722;2023-03-12T11:02:33;99187.56;;;8.36
78905;BMP280;68291;49.602;8.722;2023-03-12T11:05:22;99174.78;;;8.35
78905;BMP280;68291;49.602;8.722;2023-03-12T11:08:03;99185.72;;;8.40
78905;BMP280;68291;49.602;8.722;2023-03-12T11:10:54;99189.88;;;8.42
78905;BMP280;68291;49.602;8.722;2023-03-12T11:13:41;99189.59;;;8.48
78905;BMP280;68291;49.602;8.722;2023-03-12T11:16:26;99187.75;;;8.52
78905;BMP280;68291;49.602;8.722;2023-03-12T11:19:04;99188.38;;;8.56
78905;BMP280;68291;49.602;8.722;2023-03-12T11:21:53;99200.19;;;8.60
78905;BMP280;68291;49.602;8.722;2023-03-12T11:24:30;99193.50;;;8.56
78905;BMP280;68291;49.602;8.722;2023-03-12T11:27:35;99197.03;;;8.54
78905;BMP280;68291;49.602;8.722;2023-03-12T11:30:12;99207.88;;;8.60
78905;BMP280;68291;49.602;8.722;2023-03-12T11:33:02;99207.63;;;8.66
78905;BMP280;68291;49.602;8.722;2023-03-12T11:36:16;99197.94;;;8.73
78905;BMP280;68291;49.602;8.722;2023-03-12T11:39:04;99186.94;;;8.89
78905;BMP280;68291;49.602;8.722;2023-03-12T11:42:11;99183.56;;;9.07
78905;BMP280;68291;49.602;8.722;2023-03-12T11:45:04;99188.38;;;9.32
78905;BMP280;68291;49.602;8.722;2023-03-12T11:48:04;99192.50;;;9.53
78905;BMP280;68291;49.602;8.722;2023-03-12T11:50:57;99189.72;;;9.76
78905;BMP280;68291;49.602;8.722;2023-03-12T11:54:13;99201.66;;;9.95
78905;BMP280;68291;49.602;8.722;2023-03-12T11:56:55;99194.59;;;9.98
78905;BMP280;68291;49.602;8.722;2023-03-12T12:00:02;99181.16;;;10.10
78905;BMP280;68291;49.602;8.722;2023-03-12T12:03:44;99180.34;;;10.43
78905;BMP280;68291;49.602;8.722;2023-03-12T12:06:44;99179.84;;;10.69
78905;BMP280;68291;49.602;8.722;2023-03-12T12:09:32;99167.94;;;10.83
78905;BMP280;68291;49.602;8.722;2023-03-12T12:12:23;99166.97;;;11.01
78905;BMP280;68291;49.602;8.722;2023-03-12T12:15:15;99163.66;;;11.14
78905;BMP280;68291;49.602;8.722;2023-03-12T12:18:34;99147.06;;;11.35
78905;BMP280;68291;49.602;8.722;2023-03-12T12:21:38;99138.84;;;11.59
78905;BMP280;68291;49.602;8.722;2023-03-12T12:24:41;99142.31;;;11.89
78905;BMP280;68291;49.602;8.722;2023-03-12T12:27:24;99124.13;;;12.05
78905;BMP280;68291;49.602;8.722;2023-03-12T12:30:28;99124.81;;;12.23
78905;BMP280;68291;49.602;8.722;2023-03-12T12:33:53;99114.03;;;12.30
78905;BMP280;68291;49.602;8.722;2023-03-12T12:36:45;99116.28;;;12.36
78905;BMP280;68291;49.602;8.722;2023-03-12T12:39:39;99127.53;;;12.63
78905;BMP280;68291;49.602;8.722;2023-03-12T12:42:23;99114.94;;;12.86
78905;BMP280;68291;49.602;8.722;2023-03-12T12:45:13;99108.69;;;13.03
78905;BMP280;68291;49.602;8.722;2023-03-12T12:47:52;99102.53;;;13.18
78905;BMP280;68291;49.602;8.722;2023-03-12T12:50:47;99106.47;;;13.37
78905;BMP280;68291;49.602;8.722;2023-03-12T12:54:03;99112.19;;;13.42
78905;BMP280;68291;49.602;8.722;2023-03-12T12:56:57;99102.09;;;13.52
78905;BMP280;68291;49.602;8.722;2023-03-12T12:59:40;99097.22;;;13.73
78905;BMP280;68291;49.602;8.722;2023-03-12T13:02:38;99106.78;;;14.11
78905;BMP280;68291;49.602;8.722;2023-03-12T13:05:27;99117.69;;;14.41
78905;BMP280;68291;49.602;8.722;2023-03-12T13:09:11;99107.34;;;14.41
78905;BMP280;68291;49.602;8.722;2023-03-12T13:11:49;99102.13;;;14.29
78905;BMP280;68291;49.602;8.722;2023-03-12T13:14:40;99098.41;;;14.20
78905;BMP280;68291;49.602;8.722;2023-03-12T13:18:05;99105.84;;;14.25
78905;BMP280;68291;49.602;8.722;2023-03-12T13:21:24;99092.56;;;14.17
78905;BMP280;68291;49.602;8.722;2023-03-12T13:24:38;99104.31;;;14.22
78905;BMP280;68291;49.602;8.722;2023-03-12T13:27:20;99100.06;;;14.46
78905;BMP280;68291;49.602;8.722;2023-03-12T13:30:49;99107.19;;;14.79
78905;BMP280;68291;49.602;8.722;2023-03-12T13:33:42;99092.28;;;14.83
78905;BMP280;68291;49.602;8.722;2023-03-12T13:36:24;99077.94;;;15.02
78905;BMP280;68291;49.602;8.722;2023-03-12T13:39:28;99070.91;;;15.16
78905;BMP280;68291;49.602;8.722;2023-03-12T13:42:35;99055.16;;;15.30
78905;BMP280;68291;49.602;8.722;2023-03-12T13:45:53;99057.78;;;15.53
78905;BMP280;68291;49.602;8.722;2023-03-12T13:48:44;99060.00;;;15.70
78905;BMP280;68291;49.602;8.722;2023-03-12T13:51:24;99067.59;;;15.84
78905;BMP280;68291;49.602;8.722;2023-03-12T13:54:24;99064.25;;;16.05
78905;BMP280;68291;49.602;8.722;2023-03-12T13:57:27;99057.84;;;16.21
78905;BMP280;68291;49.602;8.722;2023-03-12T14:00:15;99051.47;;;16.36
78905;BMP280;68291;49.602;8.722;2023-03-12T14:03:12;99050.28;;;16.40
78905;BMP280;68291;49.602;8.722;2023-03-12T14:05:59;99058.81;;;16.53
78905;BMP280;68291;49.602;8.722;2023-03-12T14:09:15;99058.09;;;16.83
78905;BMP280;68291;49.602;8.722;2023-03-12T14:12:05;99035.31;;;17.50
78905;BMP280;68291;49.602;8.722;2023-03-12T14:15:21;99044.78;;;18.14
78905;BMP280;68291;49.602;8.722;2023-03-12T14:18:19;99035.28;;;18.33
78905;BMP280;68291;49.602;8.722;2023-03-12T14:21:08;99045.69;;;18.23
78905;BMP280;68291;49.602;8.722;2023-03-12T14:23:45;99040.66;;;18.00
78905;BMP280;68291;49.602;8.722;2023-03-12T14:26:45;99038.81;;;17.91
78905;BMP280;68291;49.602;8.722;2023-03-12T14:29:38;99042.50;;;17.89
78905;BMP280;68291;49.602;8.722;2023-03-12T14:32:26;99036.59;;;17.87
78905;BMP280;68291;49.602;8.722;2023-03-12T14:35:20;99046.09;;;17.77
78905;BMP280;68291;49.602;8.722;2023-03-12T14:38:17;99050.25;;;17.48
78905;BMP280;68291;49.602;8.722;2023-03-12T14:41:02;99047.22;;;17.22
78905;BMP280;68291;49.602;8.722;2023-03-12T14:43:35;99040.75;;;17.16
78905;BMP280;68291;49.602;8.722;2023-03-12T14:46:24;99029.25;;;17.19
78905;BMP280;68291;49.602;8.722;2023-03-12T14:49:19;99027.63;;;17.18
78905;BMP280;68291;49.602;8.722;2023-03-12T14:52:25;99012.59;;;17.00
78905;BMP280;68291;49.602;8.722;2023-03-12T14:55:20;99019.00;;;16.85
78905;BMP280;68291;49.602;8.722;2023-03-12T14:58:15;99010.94;;;16.77
78905;BMP280;68291;49.602;8.722;2023-03-12T15:01:04;99008.97;;;16.70
78905;BMP280;68291;49.602;8.722;2023-03-12T15:03:50;99016.50;;;16.51
78905;BMP280;68291;49.602;8.722;2023-03-12T15:06:46;99016.97;;;16.34
78905;BMP280;68291;49.602;8.722;2023-03-12T15:09:29;99022.28;;;16.22
78905;BMP280;68291;49.602;8.722;2023-03-12T15:12:24;99031.19;;;16.07
78905;BMP280;68291;49.602;8.722;2023-03-12T15:15:09;99025.88;;;15.98
78905;BMP280;68291;49.602;8.722;2023-03-12T15:17:58;99027.03;;;15.94
78905;BMP280;68291;49.602;8.722;2023-03-12T15:20:33;99027.97;;;15.93
78905;BMP280;68291;49.602;8.722;2023-03-12T15:23:44;99010.91;;;15.78
78905;BMP280;68291;49.602;8.722;2023-03-12T15:26:33;99019.88;;;15.74
78905;BMP280;68291;49.602;8.722;2023-03-12T15:29:24;99022.47;;;15.74
78905;BMP280;68291;49.602;8.722;2023-03-12T15:31:59;99022.34;;;15.75
78905;BMP280;68291;49.602;8.722;2023-03-12T15:34:36;99022.34;;;15.75
78905;BMP280;68291;49.602;8.722;2023-03-12T15:37:50;99008.78;;;15.72
78905;BMP280;68291;49.602;8.722;2023-03-12T15:40:56;99008.63;;;15.63
78905;BMP280;68291;49.602;8.722;2023-03-12T15:43:31;99005.88;;;15.53
78905;BMP280;68291;49.602;8.722;2023-03-12T15:46:26;99006.56;;;15.44
78905;BMP280;68291;49.602;8.722;2023-03-12T15:49:25;99010.41;;;15.39
78905;BMP280;68291;49.602;8.722;2023-03-12T15:52:29;99019.97;;;15.39
78905;BMP280;68291;49.602;8.722;2023-03-12T15:55:21;99027.47;;;15.31
78905;BMP280;68291;49.602;8.722;2023-03-12T15:58:23;99032.66;;;15.31
78905;BMP280;68291;49.602;8.722;2023-03-12T16:01:19;99014.63;;;15.29
78905;BMP280;68291;49.602;8.722;2023-03-12T16:04:00;99053.63;;;15.28
78905;BMP280;68291;49.602;8.722;2023-03-12T16:06:47;99031.75;;;15.19
78905;BMP280;68291;49.602;8.722;2023-03-12T16:09:45;99022.44;;;15.17
78905;BMP280;68291;49.602;8.722;2023-03-12T16:12:31;99036.00;;;15.20
78905;BMP280;68291;49.602;8.722;2023-03-12T16:16:00;99029.41;;;15.16
78905;BMP280;68291;49.602;8.722;2023-03-12T16:18:54;99033.75;;;15.16
78905;BMP280;68291;49.602;8.722;2023-03-12T16:21:45;99038.00;;;15.17
78905;BMP280;68291;49.602;8.722;2023-03-12T16:24:19;99030.44;;;15.14
78905;BMP280;68291;49.602;8.722;2023-03-12T16:26:56;99027.84;;;15.14